createdAt,value
2022-09-20T00:00:47.982Z,8.20
2022-09-20T00:03:16.382Z,5.00
2022-09-20T00:05:45.164Z,6.88
2022-09-20T00:08:14.976Z,6.40
2022-09-20T00:10:42.472Z,6.10
2022-09-20T00:13:11.842Z,8.23
2022-09-20T00:15:46.094Z,5.57
2022-09-20T00:18:13.062Z,6.00
2022-09-20T00:20:46.544Z,7.50
2022-09-20T00:23:12.961Z,8.25
2022-09-20T00:25:39.502Z,8.70
2022-09-20T00:30:33.273Z,8.40
2022-09-20T00:32:59.694Z,8.05
2022-09-20T00:35:26.130Z,6.63
2022-09-20T00:37:52.572Z,7.95
2022-09-20T00:40:21.415Z,5.75
2022-09-20T00:42:49.061Z,4.57
2022-09-20T00:45:26.984Z,10.13
2022-09-20T00:47:59.272Z,4.32
2022-09-20T00:50:50.624Z,5.63
2022-09-20T00:53:33.915Z,5.88
2022-09-20T00:56:11.754Z,8.75
2022-09-20T00:58:43.726Z,6.13
2022-09-20T01:01:10.779Z,6.40
2022-09-20T01:03:39.106Z,5.28
2022-09-20T01:06:09.927Z,6.03
2022-09-20T01:08:37.846Z,4.72
2022-09-20T01:11:04.701Z,6.70
2022-09-20T01:13:31.119Z,5.40
2022-09-20T01:16:00.791Z,4.90
2022-09-20T01:18:29.867Z,6.93
2022-09-20T01:20:56.707Z,6.47
2022-09-20T01:23:47.279Z,6.80
2022-09-20T01:26:27.547Z,4.20
2022-09-20T01:29:22.836Z,7.10
2022-09-20T01:32:00.768Z,9.13
2022-09-20T01:34:34.485Z,7.75
2022-09-20T01:37:19.539Z,6.28
2022-09-20T01:39:58.545Z,7.13
2022-09-20T01:42:38.933Z,6.68
2022-09-20T01:45:28.168Z,7.15
2022-09-20T01:48:18.546Z,7.72
2022-09-20T01:51:11.819Z,6.03
2022-09-20T01:54:09.248Z,8.00
2022-09-20T01:57:12.967Z,7.10
2022-09-20T02:00:05.334Z,6.93
2022-09-20T02:02:59.350Z,11.38
2022-09-20T02:05:47.471Z,6.82
2022-09-20T02:08:34.391Z,8.90
2022-09-20T02:11:09.469Z,5.17
2022-09-20T02:13:38.827Z,7.32
2022-09-20T02:16:30.381Z,5.63
2022-09-20T02:19:49.771Z,5.13
2022-09-20T02:22:26.291Z,7.95
2022-09-20T02:25:08.678Z,7.03
2022-09-20T02:27:54.696Z,6.43
2022-09-20T02:30:50.221Z,6.85
2022-09-20T02:33:31.511Z,3.58
2022-09-20T02:36:22.035Z,3.83
2022-09-20T02:39:30.202Z,4.50
2022-09-20T02:42:17.537Z,5.47
2022-09-20T02:45:06.707Z,7.03
2022-09-20T02:47:39.403Z,6.43
2022-09-20T02:50:34.434Z,6.22
2022-09-20T02:53:25.652Z,8.02
2022-09-20T02:56:29.807Z,4.88
2022-09-20T02:59:07.973Z,7.53
2022-09-20T03:01:44.028Z,5.10
2022-09-20T03:04:28.551Z,5.32
2022-09-20T03:07:06.006Z,7.32
2022-09-20T03:09:40.402Z,9.30
2022-09-20T03:12:40.604Z,4.30
2022-09-20T03:15:17.283Z,9.73
2022-09-20T03:18:02.654Z,6.40
2022-09-20T03:20:45.201Z,6.35
2022-09-20T03:23:56.460Z,5.85
2022-09-20T03:26:47.014Z,3.67
2022-09-20T03:29:22.447Z,6.95
2022-09-20T03:32:03.766Z,7.68
2022-09-20T03:35:06.462Z,7.63
2022-09-20T03:38:09.316Z,6.00
2022-09-20T03:40:56.878Z,7.63
2022-09-20T03:43:40.982Z,6.60
2022-09-20T03:46:35.319Z,6.28
2022-09-20T03:49:01.654Z,6.55
2022-09-20T03:52:05.660Z,6.70
2022-09-20T03:54:50.711Z,5.80
2022-09-20T03:57:35.711Z,8.27
2022-09-20T04:00:14.179Z,4.63
2022-09-20T04:02:58.204Z,7.43
2022-09-20T04:05:37.403Z,8.98
2022-09-20T04:08:41.280Z,7.03
2022-09-20T04:11:24.987Z,6.72
2022-09-20T04:14:30.799Z,8.15
2022-09-20T04:17:05.984Z,4.47
2022-09-20T04:19:45.488Z,5.10
2022-09-20T04:22:12.183Z,7.45
2022-09-20T04:27:48.683Z,5.68
2022-09-20T04:30:24.195Z,4.80
2022-09-20T04:33:01.482Z,7.28
2022-09-20T04:36:04.546Z,8.55
2022-09-20T04:38:31.272Z,4.63
2022-09-20T04:44:01.119Z,8.35
2022-09-20T04:46:40.619Z,5.47
2022-09-20T04:49:19.134Z,8.07
2022-09-20T04:52:00.763Z,5.00
2022-09-20T04:54:44.082Z,6.35
2022-09-20T04:57:34.264Z,4.50
2022-09-20T05:00:18.366Z,6.78
2022-09-20T05:03:03.414Z,8.02
2022-09-20T05:05:51.111Z,6.78
2022-09-20T05:08:42.446Z,6.78
2022-09-20T05:11:30.416Z,6.43
2022-09-20T05:14:25.562Z,7.40
2022-09-20T05:17:20.570Z,7.80
2022-09-20T05:20:14.274Z,5.95
2022-09-20T05:22:46.716Z,6.55
2022-09-20T05:26:09.634Z,5.85
2022-09-20T05:28:49.723Z,5.15
2022-09-20T05:31:34.319Z,8.15
2022-09-20T05:34:22.303Z,4.85
2022-09-20T05:37:01.183Z,7.13
2022-09-20T05:39:34.279Z,6.57
2022-09-20T05:42:33.087Z,6.65
2022-09-20T05:45:29.059Z,7.68
2022-09-20T05:48:05.371Z,5.70
2022-09-20T05:51:01.871Z,8.27
2022-09-20T05:53:48.712Z,6.07
2022-09-20T05:56:41.790Z,8.80
2022-09-20T05:59:51.716Z,7.63
2022-09-20T06:02:24.326Z,7.13
2022-09-20T06:05:11.750Z,9.35
2022-09-20T06:08:10.556Z,9.57
2022-09-20T06:10:54.491Z,10.27
2022-09-20T06:13:36.178Z,7.28
2022-09-20T06:16:05.514Z,8.15
2022-09-20T06:19:01.561Z,7.95
2022-09-20T06:21:38.135Z,8.25
2022-09-20T06:24:13.538Z,5.03
2022-09-20T06:26:41.686Z,5.57
2022-09-20T06:29:13.708Z,7.88
2022-09-20T06:31:40.095Z,5.97
2022-09-20T06:34:13.318Z,7.13
2022-09-20T06:37:06.228Z,7.15
2022-09-20T06:40:10.113Z,8.40
2022-09-20T06:42:37.524Z,6.80
2022-09-20T06:45:04.343Z,5.68
2022-09-20T06:47:30.903Z,5.22
2022-09-20T06:49:58.851Z,6.82
2022-09-20T06:52:25.283Z,9.77
2022-09-20T06:54:55.076Z,7.95
2022-09-20T06:57:27.382Z,9.68
2022-09-20T06:59:53.742Z,9.43
2022-09-20T07:02:20.284Z,6.82
2022-09-20T07:07:17.563Z,5.15
2022-09-20T07:09:44.191Z,7.10
2022-09-20T07:17:06.096Z,8.77
2022-09-20T07:19:32.459Z,5.78
2022-09-20T07:21:58.899Z,8.10
2022-09-20T07:24:25.680Z,7.78
2022-09-20T07:29:22.938Z,10.27
2022-09-20T07:31:50.570Z,7.50
2022-09-20T07:34:20.139Z,6.60
2022-09-20T07:36:47.711Z,8.00
2022-09-20T07:39:14.390Z,7.75
2022-09-20T07:41:40.822Z,8.20
2022-09-20T07:44:24.340Z,13.90
2022-09-20T07:46:51.882Z,7.72
2022-09-20T07:49:18.304Z,11.00
2022-09-20T07:54:11.818Z,5.70
2022-09-20T07:56:38.571Z,6.93
2022-09-20T07:59:05.045Z,6.00
2022-09-20T08:01:31.568Z,7.70
2022-09-20T08:06:24.346Z,6.85
2022-09-20T08:11:21.651Z,6.95
2022-09-20T08:14:07.332Z,6.00
2022-09-20T08:16:41.908Z,4.55
2022-09-20T08:19:08.655Z,5.88
2022-09-20T08:21:37.808Z,7.05
2022-09-20T08:24:04.265Z,4.60
2022-09-20T08:26:35.668Z,5.03
2022-09-20T08:29:02.162Z,5.93
2022-09-20T08:31:34.097Z,5.95
2022-09-20T08:34:04.823Z,6.70
2022-09-20T08:36:36.391Z,6.90
2022-09-20T08:42:10.973Z,5.72
2022-09-20T08:44:57.801Z,5.20
2022-09-20T08:47:35.625Z,9.00
2022-09-20T08:50:17.416Z,7.32
2022-09-20T08:52:48.594Z,7.47
2022-09-20T08:55:23.998Z,10.68
2022-09-20T08:57:56.680Z,6.68
2022-09-20T09:00:29.348Z,6.18
2022-09-20T09:02:58.130Z,8.50
2022-09-20T09:05:32.893Z,5.15
2022-09-20T09:08:04.564Z,6.68
2022-09-20T09:10:42.608Z,6.97
2022-09-20T09:13:19.370Z,6.53
2022-09-20T09:15:52.936Z,6.88
2022-09-20T09:18:19.382Z,7.50
2022-09-20T09:20:46.674Z,6.32
2022-09-20T09:23:25.954Z,6.32
2022-09-20T09:25:54.726Z,6.75
2022-09-20T09:28:26.624Z,5.22
2022-09-20T09:30:53.147Z,5.32
2022-09-20T09:33:31.252Z,6.55
2022-09-20T09:36:03.562Z,6.32
2022-09-20T09:38:32.608Z,4.15
2022-09-20T09:41:05.331Z,7.45
2022-09-20T09:43:35.487Z,6.47
2022-09-20T09:46:23.038Z,5.63
2022-09-20T09:49:10.614Z,5.65
2022-09-20T09:51:38.548Z,5.28
2022-09-20T09:54:07.701Z,6.13
2022-09-20T09:56:48.338Z,7.13
2022-09-20T09:59:33.363Z,6.65
2022-09-20T10:02:05.895Z,6.75
2022-09-20T10:04:47.626Z,5.13
2022-09-20T10:07:35.854Z,5.70
2022-09-20T10:10:16.995Z,5.85
2022-09-20T10:12:49.137Z,5.38
2022-09-20T10:15:41.159Z,6.25
2022-09-20T10:18:35.705Z,5.03
2022-09-20T10:21:11.237Z,3.95
2022-09-20T10:24:04.850Z,6.93
2022-09-20T10:26:57.744Z,5.15
2022-09-20T10:29:46.814Z,5.57
2022-09-20T10:32:21.002Z,5.13
2022-09-20T10:35:00.042Z,5.82
2022-09-20T10:37:51.371Z,4.40
2022-09-20T10:41:02.776Z,3.05
2022-09-20T10:43:47.816Z,8.30
2022-09-20T10:46:46.284Z,3.75
2022-09-20T10:49:36.516Z,6.13
2022-09-20T10:52:29.014Z,4.88
2022-09-20T10:55:04.768Z,3.28
2022-09-20T10:57:44.393Z,5.63
2022-09-20T11:00:49.160Z,4.18
2022-09-20T11:03:21.614Z,4.63
2022-09-20T11:06:17.663Z,5.15
2022-09-20T11:08:50.727Z,3.88
2022-09-20T11:11:25.581Z,3.45
2022-09-20T11:14:00.980Z,6.10
2022-09-20T11:16:59.497Z,5.65
2022-09-20T11:19:48.351Z,4.78
2022-09-20T11:22:31.123Z,5.70
2022-09-20T11:25:08.599Z,5.70
2022-09-20T11:27:44.183Z,4.30
2022-09-20T11:30:18.108Z,4.30
2022-09-20T11:32:53.952Z,4.93
2022-09-20T11:35:26.734Z,5.87
2022-09-20T11:38:03.173Z,3.97
2022-09-20T11:40:34.651Z,7.15
2022-09-20T11:43:05.930Z,5.63
2022-09-20T11:45:34.043Z,5.65
2022-09-20T11:48:10.208Z,3.25
2022-09-20T11:51:04.779Z,1.90
2022-09-20T11:53:46.564Z,3.28
2022-09-20T11:56:20.079Z,3.88
2022-09-20T11:58:52.783Z,2.35
2022-09-20T12:01:28.739Z,2.92
2022-09-20T12:04:31.226Z,1.33
2022-09-20T12:07:18.286Z,2.50
2022-09-20T12:09:53.882Z,2.55
2022-09-20T12:12:44.192Z,0.95
2022-09-20T12:15:25.187Z,1.48
2022-09-20T12:17:52.443Z,2.25
2022-09-20T12:20:43.291Z,0.82
2022-09-20T12:23:38.522Z,1.33
2022-09-20T12:26:13.196Z,1.30
2022-09-20T12:28:43.107Z,1.40
2022-09-20T12:31:18.953Z,3.25
2022-09-20T12:34:15.888Z,4.23
2022-09-20T12:37:05.218Z,1.23
2022-09-20T12:39:34.258Z,2.13
2022-09-20T12:42:04.514Z,1.23
2022-09-20T12:44:40.157Z,1.73
2022-09-20T12:47:15.811Z,2.90
2022-09-20T12:50:04.062Z,2.53
2022-09-20T12:52:54.975Z,2.33
2022-09-20T12:55:27.575Z,1.52
2022-09-20T12:58:02.518Z,2.85
2022-09-20T13:00:38.348Z,4.50
2022-09-20T13:03:15.832Z,1.30
2022-09-20T13:05:47.685Z,3.47
2022-09-20T13:08:27.696Z,2.00
2022-09-20T13:11:09.448Z,2.80
2022-09-20T13:13:49.010Z,1.77
2022-09-20T13:16:30.885Z,3.33
2022-09-20T13:19:07.783Z,6.60
2022-09-20T13:24:04.319Z,1.60
2022-09-20T13:26:40.848Z,1.83
2022-09-20T13:29:10.111Z,3.67
2022-09-20T13:31:36.630Z,2.47
2022-09-20T13:34:24.241Z,2.65
2022-09-20T13:36:58.284Z,2.67
2022-09-20T13:39:36.746Z,3.28
2022-09-20T13:42:19.595Z,2.63
2022-09-20T13:44:48.185Z,1.92
2022-09-20T13:47:32.255Z,4.57
2022-09-20T13:50:33.467Z,5.88
2022-09-20T13:53:01.973Z,9.52
2022-09-20T13:55:33.144Z,5.30
2022-09-20T13:58:03.559Z,5.28
2022-09-20T14:00:32.040Z,3.47
2022-09-20T14:02:59.147Z,3.75
2022-09-20T14:05:29.333Z,9.43
2022-09-20T14:07:56.696Z,4.38
2022-09-20T14:10:30.413Z,4.60
2022-09-20T14:12:58.675Z,4.20
2022-09-20T14:15:29.618Z,4.35
2022-09-20T14:17:56.358Z,6.88
2022-09-20T14:20:23.787Z,6.75
2022-09-20T14:22:50.255Z,2.42
2022-09-20T14:25:17.295Z,4.75
2022-09-20T14:27:44.022Z,2.92
2022-09-20T14:30:29.084Z,4.63
2022-09-20T14:32:57.448Z,2.15
2022-09-20T14:35:23.926Z,4.72
2022-09-20T14:37:57.022Z,5.97
2022-09-20T14:40:33.098Z,4.15
2022-09-20T14:43:02.272Z,6.55
2022-09-20T14:45:32.633Z,6.55
2022-09-20T14:48:11.745Z,4.22
2022-09-20T14:50:43.647Z,1.98
2022-09-20T14:53:10.688Z,3.15
2022-09-20T14:55:39.538Z,3.65
2022-09-20T14:58:13.869Z,2.30
2022-09-20T15:00:50.366Z,2.63
2022-09-20T15:03:25.230Z,4.65
2022-09-20T15:05:51.868Z,3.53
2022-09-20T15:08:19.662Z,2.85
2022-09-20T15:10:47.032Z,2.28
2022-09-20T15:13:14.142Z,3.75
2022-09-20T15:15:41.709Z,1.17
2022-09-20T15:18:31.224Z,4.50
2022-09-20T15:20:57.585Z,5.40
2022-09-20T15:25:52.362Z,2.08
2022-09-20T15:28:19.726Z,3.05
2022-09-20T15:30:50.369Z,2.88
2022-09-20T15:33:18.206Z,1.75
2022-09-20T15:35:44.982Z,1.58
2022-09-20T15:38:12.451Z,2.38
2022-09-20T15:40:40.893Z,3.70
2022-09-20T15:43:09.408Z,2.03
2022-09-20T15:45:36.057Z,2.17
2022-09-20T15:48:02.996Z,3.60
2022-09-20T15:50:29.384Z,2.92
2022-09-20T15:52:59.980Z,4.00
2022-09-20T15:55:26.766Z,4.53
2022-09-20T16:00:19.998Z,3.95
2022-09-20T16:02:49.901Z,3.55
2022-09-20T16:05:16.452Z,5.22
2022-09-20T16:10:09.258Z,2.90
2022-09-20T16:15:01.958Z,3.45
2022-09-20T16:17:46.820Z,4.00
2022-09-20T16:20:13.216Z,3.70
2022-09-20T16:22:39.646Z,2.95
2022-09-20T16:25:06.664Z,1.50
2022-09-20T16:27:34.752Z,2.50
2022-09-20T16:30:02.616Z,2.88
2022-09-20T16:32:29.064Z,1.70
2022-09-20T16:34:55.492Z,3.95
2022-09-20T16:37:23.396Z,2.50
2022-09-20T16:39:49.791Z,3.13
2022-09-20T16:42:16.889Z,2.92
2022-09-20T16:44:43.393Z,4.13
2022-09-20T16:49:42.697Z,5.60
2022-09-20T16:52:10.497Z,4.25
2022-09-20T16:54:37.050Z,2.72
2022-09-20T16:59:29.822Z,2.97
2022-09-20T17:01:56.392Z,1.95
2022-09-20T17:04:23.078Z,4.53
2022-09-20T17:06:51.268Z,2.85
2022-09-20T17:09:17.930Z,4.10
2022-09-20T17:11:47.241Z,4.45
2022-09-20T17:14:16.300Z,3.45
2022-09-20T17:16:47.388Z,3.67
2022-09-20T17:19:16.450Z,3.45
2022-09-20T17:21:49.134Z,3.08
2022-09-20T17:24:17.847Z,2.00
2022-09-20T17:26:45.323Z,2.45
2022-09-20T17:29:16.080Z,4.03
2022-09-20T17:31:48.801Z,3.67
2022-09-20T17:34:21.370Z,2.20
2022-09-20T17:36:48.446Z,5.03
2022-09-20T17:39:16.026Z,2.08
2022-09-20T17:41:44.933Z,4.55
2022-09-20T17:44:12.130Z,6.25
2022-09-20T17:46:40.719Z,4.50
2022-09-20T17:49:09.402Z,2.78
2022-09-20T17:51:39.406Z,3.70
2022-09-20T17:54:07.518Z,4.55
2022-09-20T17:56:35.596Z,5.35
2022-09-20T17:59:04.529Z,6.47
2022-09-20T18:01:33.277Z,7.35
2022-09-20T18:04:01.839Z,6.05
2022-09-20T18:06:31.110Z,5.70
2022-09-20T18:09:02.556Z,5.43
2022-09-20T18:11:37.861Z,6.82
2022-09-20T18:14:06.849Z,7.22
2022-09-20T18:16:34.955Z,6.35
2022-09-20T18:19:01.729Z,11.02
2022-09-20T18:23:57.181Z,25.73
2022-09-20T18:26:26.983Z,14.80
2022-09-20T18:28:56.796Z,9.48
2022-09-20T18:31:26.012Z,6.35
2022-09-20T18:33:56.455Z,4.13
2022-09-20T18:36:25.519Z,10.70
2022-09-20T18:38:55.046Z,21.00
2022-09-20T18:41:25.427Z,19.27
2022-09-20T18:43:54.043Z,12.65
2022-09-20T18:46:24.888Z,8.98
2022-09-20T18:48:53.131Z,6.22
2022-09-20T18:51:20.364Z,8.35
2022-09-20T18:53:47.786Z,8.15
2022-09-20T18:56:23.138Z,4.93
2022-09-20T18:58:52.008Z,3.42
2022-09-20T19:01:57.986Z,5.57
2022-09-20T19:04:45.768Z,5.55
2022-09-20T19:10:08.528Z,8.93
2022-09-20T19:13:01.750Z,6.45
2022-09-20T19:15:52.190Z,6.28
2022-09-20T19:18:24.718Z,5.10
2022-09-20T19:21:16.399Z,6.68
2022-09-20T19:24:03.262Z,7.63
2022-09-20T19:26:31.720Z,7.47
2022-09-20T19:29:00.024Z,9.57
2022-09-20T19:31:31.893Z,7.35
2022-09-20T19:34:01.376Z,6.93
2022-09-20T19:36:44.575Z,9.73
2022-09-20T19:39:33.644Z,8.45
2022-09-20T19:42:19.990Z,8.43
2022-09-20T19:45:20.251Z,7.00
2022-09-20T19:48:16.529Z,6.20
2022-09-20T19:50:46.200Z,7.70
2022-09-20T19:53:18.234Z,4.20
2022-09-20T19:55:48.438Z,5.63
2022-09-20T19:58:15.096Z,5.28
2022-09-20T20:03:13.270Z,5.47
2022-09-20T20:05:46.127Z,5.20
2022-09-20T20:08:22.860Z,4.20
2022-09-20T20:11:05.991Z,7.22
2022-09-20T20:14:03.807Z,4.57
2022-09-20T20:17:00.365Z,9.20
2022-09-20T20:19:45.287Z,6.53
2022-09-20T20:22:20.798Z,4.35
2022-09-20T20:24:52.223Z,8.00
2022-09-20T20:27:22.838Z,5.72
2022-09-20T20:29:49.601Z,4.50
2022-09-20T20:34:42.920Z,4.18
2022-09-20T20:39:35.742Z,5.38
2022-09-20T20:42:02.732Z,7.28
2022-09-20T20:44:30.576Z,4.70
2022-09-20T20:46:57.118Z,7.70
2022-09-20T20:51:50.268Z,4.50
2022-09-20T20:54:16.710Z,5.10
2022-09-20T20:56:43.365Z,6.70
2022-09-20T20:59:10.151Z,7.60
2022-09-20T21:01:38.391Z,7.63
2022-09-20T21:04:07.784Z,5.75
2022-09-20T21:06:36.307Z,6.40
2022-09-20T21:09:04.703Z,5.05
2022-09-20T21:11:44.797Z,5.32
2022-09-20T21:14:12.469Z,5.00
2022-09-20T21:16:42.569Z,5.88
2022-09-20T21:19:12.831Z,6.18
2022-09-20T21:21:42.604Z,5.03
2022-09-20T21:24:11.199Z,7.90
2022-09-20T21:26:38.924Z,6.40
2022-09-20T21:29:07.941Z,5.90
2022-09-20T21:31:39.878Z,7.78
2022-09-20T21:34:12.631Z,9.77
2022-09-20T21:36:41.371Z,6.40
2022-09-20T21:39:08.598Z,7.90
2022-09-20T21:41:37.462Z,7.00
2022-09-20T21:44:05.418Z,8.10
2022-09-20T21:46:34.357Z,4.65
2022-09-20T21:49:03.960Z,5.22
2022-09-20T21:51:31.757Z,5.05
2022-09-20T21:54:01.160Z,5.40
2022-09-20T21:56:31.237Z,8.55
2022-09-20T21:58:58.644Z,6.80
2022-09-20T22:01:27.615Z,3.88
2022-09-20T22:03:57.370Z,7.18
2022-09-20T22:06:26.829Z,6.28
2022-09-20T22:08:58.504Z,4.53
2022-09-20T22:11:34.533Z,5.45
2022-09-20T22:14:01.073Z,4.82
2022-09-20T22:18:59.674Z,5.85
2022-09-20T22:21:34.962Z,6.57
2022-09-20T22:24:04.062Z,5.85
2022-09-20T22:26:36.760Z,5.97
2022-09-20T22:29:04.503Z,4.05
2022-09-20T22:31:33.588Z,2.83
2022-09-20T22:34:04.729Z,6.95
2022-09-20T22:36:36.912Z,6.43
2022-09-20T22:39:07.318Z,5.97
2022-09-20T22:41:35.277Z,7.47
2022-09-20T22:44:02.884Z,3.60
2022-09-20T22:46:30.795Z,7.30
2022-09-20T22:48:57.799Z,4.65
2022-09-20T22:51:26.620Z,9.88
2022-09-20T22:53:53.306Z,5.53
2022-09-20T22:56:21.866Z,4.60
2022-09-20T22:58:50.975Z,6.40
2022-09-20T23:01:19.373Z,6.93
2022-09-20T23:03:48.619Z,5.20
2022-09-20T23:06:16.520Z,5.63
2022-09-20T23:08:43.297Z,4.13
2022-09-20T23:11:09.773Z,5.88
2022-09-20T23:13:36.547Z,6.53
2022-09-20T23:16:14.233Z,4.28
2022-09-20T23:18:41.000Z,7.30
2022-09-20T23:21:07.754Z,6.28
2022-09-20T23:23:34.803Z,4.72
2022-09-20T23:26:15.972Z,4.90
2022-09-20T23:28:45.679Z,5.10
2022-09-20T23:31:14.757Z,6.10
2022-09-20T23:33:50.415Z,3.17
2022-09-20T23:36:18.939Z,7.55
2022-09-20T23:38:45.994Z,4.63
2022-09-20T23:41:14.604Z,5.40
2022-09-20T23:43:42.438Z,5.00
2022-09-20T23:46:10.433Z,4.60
2022-09-20T23:48:37.351Z,4.75
2022-09-20T23:51:05.005Z,5.38
2022-09-20T23:53:32.492Z,5.55
2022-09-20T23:55:59.118Z,4.22
